Kearns, Utah
Current Conditions -  °F | °C
As of 11:53 AM on Thursday 27 Nov 2014 (Local Time) from KSLC Reporting Station
Broken Clouds Broken Clouds  
Wind Chill: 56°   Ceiling: 14000
Heat Index: 56°   Visibility: 10mi
Dew Point: 23°   Wind: 7mph
Humidity: 28%   Direction: 160°SSE
Pressure: 30.26"   Gusts: NA
Location:  40.65°N, 111.96°W
Report Text: KSLC 271853Z 16006KT 10SM FEW110 BKN140 BKN180 13/M05 A3026 RMK AO2 SLP227 VIRGA N-NE ACSL DSNT N AND NW T01331050
Loading
Personal Weather Stations






























Interactive Weather Map New forecast layout! Learn more

10-Day Weather Forecast

Advertisements
Track Severe Weather on mobile